createdAt,value
2023-04-30T00:00:52.520Z,3.50
2023-04-30T00:01:54.076Z,2.97
2023-04-30T00:02:55.976Z,3.83
2023-04-30T00:03:58.074Z,3.60
2023-04-30T00:04:59.554Z,3.63
2023-04-30T00:06:01.480Z,2.83
2023-04-30T00:07:03.911Z,3.03
2023-04-30T00:08:05.468Z,3.53
2023-04-30T00:09:07.166Z,3.50
2023-04-30T00:10:10.710Z,3.00
2023-04-30T00:11:12.129Z,3.53
2023-04-30T00:12:13.838Z,3.03
2023-04-30T00:13:15.273Z,4.10
2023-04-30T00:14:16.961Z,3.20
2023-04-30T00:15:18.460Z,3.63
2023-04-30T00:16:20.060Z,3.10
2023-04-30T00:17:21.711Z,3.10
2023-04-30T00:18:23.647Z,3.40
2023-04-30T00:19:25.259Z,3.73
2023-04-30T00:20:26.635Z,3.37
2023-04-30T00:21:28.155Z,3.80
2023-04-30T00:22:29.619Z,3.20
2023-04-30T00:23:31.095Z,3.43
2023-04-30T00:24:32.558Z,2.83
2023-04-30T00:25:33.969Z,3.40
2023-04-30T00:26:35.783Z,2.87
2023-04-30T00:27:38.851Z,3.23
2023-04-30T00:28:42.360Z,3.60
2023-04-30T00:29:43.821Z,4.30
2023-04-30T00:30:45.793Z,3.93
2023-04-30T00:31:47.786Z,3.80
2023-04-30T00:32:49.392Z,3.23
2023-04-30T00:33:50.913Z,3.77
2023-04-30T00:34:52.312Z,3.30
2023-04-30T00:35:54.456Z,2.90
2023-04-30T00:36:56.253Z,3.07
2023-04-30T00:37:57.768Z,3.90
2023-04-30T00:38:59.565Z,3.27
2023-04-30T00:40:01.028Z,2.83
2023-04-30T00:41:02.703Z,2.60
2023-04-30T00:42:05.607Z,3.40
2023-04-30T00:43:07.077Z,3.60
2023-04-30T00:44:08.876Z,2.90
2023-04-30T00:45:11.900Z,3.13
2023-04-30T00:46:13.584Z,3.70
2023-04-30T00:47:15.159Z,3.10
2023-04-30T00:48:16.904Z,3.27
2023-04-30T00:49:18.391Z,3.50
2023-04-30T00:50:20.358Z,3.03
2023-04-30T00:51:21.832Z,3.13
2023-04-30T00:52:23.640Z,2.80
2023-04-30T00:53:25.671Z,3.80
2023-04-30T00:54:27.421Z,3.57
2023-04-30T00:55:29.506Z,3.27
2023-04-30T00:56:31.910Z,3.73
2023-04-30T00:57:36.121Z,3.33
2023-04-30T00:58:37.771Z,3.43
2023-04-30T00:59:39.612Z,3.83
2023-04-30T01:00:47.091Z,3.93
2023-04-30T01:01:52.307Z,2.70
2023-04-30T01:02:54.233Z,3.47
2023-04-30T01:03:57.038Z,3.70
2023-04-30T01:05:02.657Z,3.17
2023-04-30T01:06:04.955Z,3.57
2023-04-30T01:07:07.193Z,3.33
2023-04-30T01:08:10.609Z,3.93
2023-04-30T01:09:12.414Z,4.33
2023-04-30T01:10:16.873Z,3.53
2023-04-30T01:11:39.438Z,3.30
2023-04-30T01:12:49.626Z,3.80
2023-04-30T01:14:10.056Z,3.80
2023-04-30T01:15:33.284Z,3.07
2023-04-30T01:16:54.697Z,3.23
2023-04-30T01:18:07.783Z,2.77
2023-04-30T01:19:19.739Z,2.90
2023-04-30T01:20:22.895Z,2.83
2023-04-30T01:21:25.594Z,3.30
2023-04-30T01:22:27.057Z,3.30
2023-04-30T01:23:38.290Z,2.57
2023-04-30T01:25:03.747Z,3.30
2023-04-30T01:26:15.854Z,3.20
2023-04-30T01:27:58.989Z,2.80
2023-04-30T01:29:02.832Z,2.50
2023-04-30T01:30:06.627Z,2.70
2023-04-30T01:31:19.850Z,2.73
2023-04-30T01:32:21.617Z,3.00
2023-04-30T01:33:23.030Z,3.17
2023-04-30T01:34:24.779Z,2.83
2023-04-30T01:35:54.713Z,3.30
2023-04-30T01:37:16.278Z,2.63
2023-04-30T01:38:26.719Z,3.17
2023-04-30T01:39:57.543Z,3.60
2023-04-30T01:40:59.786Z,2.90
2023-04-30T01:42:21.993Z,4.37
2023-04-30T01:43:43.735Z,3.53
2023-04-30T01:45:09.496Z,3.87
2023-04-30T01:46:22.146Z,3.13
2023-04-30T01:47:26.448Z,4.00
2023-04-30T01:48:49.934Z,3.10
2023-04-30T01:50:03.250Z,3.27
2023-04-30T01:51:19.818Z,3.27
2023-04-30T01:52:28.709Z,3.87
2023-04-30T01:53:42.153Z,2.90
2023-04-30T01:54:46.418Z,3.50
2023-04-30T01:55:55.515Z,2.90
2023-04-30T01:57:08.072Z,3.70
2023-04-30T01:58:12.850Z,2.67
2023-04-30T01:59:15.815Z,2.93
2023-04-30T02:00:17.963Z,3.50
2023-04-30T02:01:31.679Z,3.37
2023-04-30T02:02:33.335Z,2.93
2023-04-30T02:03:34.952Z,3.10
2023-04-30T02:04:36.903Z,3.10
2023-04-30T02:05:38.785Z,3.30
2023-04-30T02:06:41.649Z,3.50
2023-04-30T02:07:46.500Z,3.50
2023-04-30T02:08:47.950Z,3.20
2023-04-30T02:09:49.468Z,3.40
2023-04-30T02:10:51.024Z,3.03
2023-04-30T02:11:52.539Z,3.20
2023-04-30T02:12:54.245Z,4.03
2023-04-30T02:13:55.668Z,3.90
2023-04-30T02:14:57.799Z,4.60
2023-04-30T02:15:59.228Z,3.30
2023-04-30T02:17:00.783Z,3.73
2023-04-30T02:18:02.300Z,4.50
2023-04-30T02:19:04.073Z,3.30
2023-04-30T02:20:06.158Z,2.83
2023-04-30T02:21:07.688Z,3.20
2023-04-30T02:22:09.860Z,3.17
2023-04-30T02:23:11.289Z,3.30
2023-04-30T02:24:12.879Z,3.00
2023-04-30T02:25:14.428Z,3.20
2023-04-30T02:26:15.848Z,3.33
2023-04-30T02:27:17.778Z,2.70
2023-04-30T02:28:19.255Z,3.80
2023-04-30T02:29:20.659Z,3.87
2023-04-30T02:30:22.171Z,2.73
2023-04-30T02:31:23.666Z,3.43
2023-04-30T02:32:25.649Z,2.57
2023-04-30T02:33:27.595Z,3.40
2023-04-30T02:34:29.419Z,2.57
2023-04-30T02:35:31.038Z,2.60
2023-04-30T02:36:36.228Z,3.70
2023-04-30T02:37:37.743Z,2.93
2023-04-30T02:38:39.316Z,2.80
2023-04-30T02:39:41.321Z,3.00
2023-04-30T02:40:42.769Z,2.70
2023-04-30T02:41:44.251Z,2.50
2023-04-30T02:42:45.667Z,2.80
2023-04-30T02:43:47.516Z,3.50
2023-04-30T02:44:48.988Z,2.97
2023-04-30T02:45:50.601Z,2.67
2023-04-30T02:46:52.041Z,2.50
2023-04-30T02:47:53.477Z,2.37
2023-04-30T02:48:55.370Z,1.83
2023-04-30T02:49:57.336Z,2.77
2023-04-30T02:50:58.891Z,2.27
2023-04-30T02:52:00.913Z,3.00
2023-04-30T02:53:02.530Z,2.83
2023-04-30T02:54:04.029Z,2.07
2023-04-30T02:55:06.079Z,2.50
2023-04-30T02:56:08.187Z,2.80
2023-04-30T02:57:09.789Z,3.20
2023-04-30T02:58:11.252Z,3.00
2023-04-30T02:59:12.980Z,2.50
2023-04-30T03:00:14.715Z,2.80
2023-04-30T03:01:16.577Z,2.43
2023-04-30T03:02:21.622Z,2.00
2023-04-30T03:03:23.576Z,2.10
2023-04-30T03:04:25.724Z,2.77
2023-04-30T03:05:27.253Z,2.57
2023-04-30T03:06:28.673Z,3.53
2023-04-30T03:07:30.237Z,2.80
2023-04-30T03:08:32.284Z,2.17
2023-04-30T03:09:33.817Z,2.17
2023-04-30T03:10:36.318Z,2.47
2023-04-30T03:11:37.943Z,2.43
2023-04-30T03:12:39.472Z,2.30
2023-04-30T03:13:41.214Z,2.67
2023-04-30T03:14:42.750Z,2.10
2023-04-30T03:15:44.619Z,2.70
2023-04-30T03:16:47.073Z,2.60
2023-04-30T03:17:48.620Z,2.40
2023-04-30T03:18:50.225Z,2.80
2023-04-30T03:19:51.725Z,2.57
2023-04-30T03:20:53.370Z,2.40
2023-04-30T03:21:55.152Z,2.10
2023-04-30T03:22:56.843Z,2.07
2023-04-30T03:23:58.397Z,2.07
2023-04-30T03:24:59.827Z,2.03
2023-04-30T03:26:01.868Z,2.37
2023-04-30T03:27:03.416Z,2.53
2023-04-30T03:28:05.567Z,2.13
2023-04-30T03:29:07.059Z,1.90
2023-04-30T03:30:09.622Z,2.47
2023-04-30T03:31:11.132Z,2.13
2023-04-30T03:32:12.612Z,2.70
2023-04-30T03:33:13.999Z,2.80
2023-04-30T03:34:16.212Z,2.27
2023-04-30T03:35:19.431Z,2.13
2023-04-30T03:36:21.272Z,2.50
2023-04-30T03:37:22.793Z,2.53
2023-04-30T03:38:24.382Z,2.33
2023-04-30T03:39:25.836Z,3.50
2023-04-30T03:40:27.760Z,2.70
2023-04-30T03:41:29.256Z,2.57
2023-04-30T03:42:30.775Z,2.77
2023-04-30T03:43:32.173Z,2.53
2023-04-30T03:44:33.872Z,3.17
2023-04-30T03:45:35.511Z,2.50
2023-04-30T03:46:37.017Z,2.10
2023-04-30T03:47:39.078Z,2.23
2023-04-30T03:48:40.694Z,2.07
2023-04-30T03:49:42.453Z,2.47
2023-04-30T03:50:44.057Z,2.30
2023-04-30T03:51:47.517Z,1.97
2023-04-30T03:52:48.897Z,3.07
2023-04-30T03:53:50.866Z,3.60
2023-04-30T03:54:52.316Z,2.23
2023-04-30T03:56:00.615Z,2.40
2023-04-30T03:57:06.597Z,2.30
2023-04-30T03:58:12.098Z,2.60
2023-04-30T03:59:13.853Z,2.60
2023-04-30T04:00:15.536Z,2.50
2023-04-30T04:01:22.036Z,2.47
2023-04-30T04:02:31.315Z,1.80
2023-04-30T04:03:39.215Z,2.87
2023-04-30T04:04:45.075Z,2.13
2023-04-30T04:05:52.522Z,2.80
2023-04-30T04:07:01.174Z,2.47
2023-04-30T04:08:03.154Z,2.50
2023-04-30T04:09:04.947Z,2.00
2023-04-30T04:10:08.108Z,2.83
2023-04-30T04:11:13.332Z,2.53
2023-04-30T04:12:14.832Z,2.47
2023-04-30T04:13:16.352Z,1.87
2023-04-30T04:14:17.872Z,2.37
2023-04-30T04:15:19.424Z,2.33
2023-04-30T04:16:21.139Z,2.40
2023-04-30T04:17:23.210Z,3.13
2023-04-30T04:18:24.642Z,2.53
2023-04-30T04:19:27.530Z,2.70
2023-04-30T04:20:30.034Z,2.30
2023-04-30T04:21:32.113Z,2.40
2023-04-30T04:22:35.909Z,2.50
2023-04-30T04:23:37.446Z,2.00
2023-04-30T04:24:39.314Z,2.37
2023-04-30T04:25:41.702Z,2.63
2023-04-30T04:26:43.339Z,2.60
2023-04-30T04:27:45.109Z,2.77
2023-04-30T04:28:47.716Z,2.00
2023-04-30T04:29:49.864Z,2.13
2023-04-30T04:30:52.844Z,2.50
2023-04-30T04:31:55.629Z,2.53
2023-04-30T04:32:57.646Z,2.90
2023-04-30T04:34:01.173Z,3.50
2023-04-30T04:35:03.391Z,2.93
2023-04-30T04:36:05.453Z,3.30
2023-04-30T04:37:07.176Z,2.63
2023-04-30T04:38:09.401Z,3.10
2023-04-30T04:39:11.917Z,2.83
2023-04-30T04:40:14.215Z,2.70
2023-04-30T04:41:15.808Z,2.63
2023-04-30T04:42:18.021Z,3.20
2023-04-30T04:43:20.200Z,2.47
2023-04-30T04:44:22.455Z,2.80
2023-04-30T04:45:24.003Z,2.83
2023-04-30T04:46:26.290Z,2.80
2023-04-30T04:47:27.875Z,3.27
2023-04-30T04:48:29.685Z,2.53
2023-04-30T04:49:31.170Z,2.60
2023-04-30T04:50:32.544Z,2.50
2023-04-30T04:51:34.027Z,2.57
2023-04-30T04:52:36.048Z,3.40
2023-04-30T04:53:37.777Z,2.87
2023-04-30T04:54:39.375Z,2.20
2023-04-30T04:55:41.003Z,2.67
2023-04-30T04:56:42.801Z,1.93
2023-04-30T04:57:44.678Z,2.80
2023-04-30T04:58:47.397Z,2.23
2023-04-30T04:59:48.846Z,2.67
2023-04-30T05:00:50.254Z,2.40
2023-04-30T05:01:51.703Z,2.00
2023-04-30T05:02:53.555Z,2.27
2023-04-30T05:03:56.346Z,2.17
2023-04-30T05:04:58.035Z,1.90
2023-04-30T05:05:59.893Z,1.83
2023-04-30T05:07:02.230Z,2.10
2023-04-30T05:08:03.936Z,1.80
2023-04-30T05:09:08.950Z,1.90
2023-04-30T05:10:10.838Z,1.93
2023-04-30T05:11:14.245Z,2.20
2023-04-30T05:12:17.254Z,2.40
2023-04-30T05:13:18.681Z,1.87
2023-04-30T05:14:21.049Z,2.17
2023-04-30T05:15:22.698Z,2.77
2023-04-30T05:16:24.275Z,2.03
2023-04-30T05:17:25.893Z,1.93
2023-04-30T05:18:27.348Z,1.73
2023-04-30T05:19:29.301Z,1.83
2023-04-30T05:20:31.040Z,1.90
2023-04-30T05:21:33.133Z,1.73
2023-04-30T05:22:34.881Z,2.00
2023-04-30T05:23:36.476Z,2.20
2023-04-30T05:24:37.946Z,1.80
2023-04-30T05:25:39.501Z,1.93
2023-04-30T05:26:41.221Z,1.77
2023-04-30T05:27:42.663Z,1.70
2023-04-30T05:28:44.135Z,2.60
2023-04-30T05:29:45.621Z,2.07
2023-04-30T05:30:47.271Z,2.00
2023-04-30T05:31:49.327Z,1.80
2023-04-30T05:32:52.826Z,1.83
2023-04-30T05:33:54.347Z,1.70
2023-04-30T05:34:55.887Z,1.70
2023-04-30T05:35:57.331Z,1.90
2023-04-30T05:36:59.067Z,1.60
2023-04-30T05:38:01.115Z,2.10
2023-04-30T05:39:02.657Z,1.70
2023-04-30T05:40:06.281Z,1.50
2023-04-30T05:41:07.906Z,2.10
2023-04-30T05:42:09.348Z,1.53
2023-04-30T05:43:10.826Z,1.70
2023-04-30T05:44:12.168Z,1.60
2023-04-30T05:45:15.913Z,1.57
2023-04-30T05:46:17.345Z,1.67
2023-04-30T05:47:18.853Z,1.90
2023-04-30T05:48:20.379Z,1.60
2023-04-30T05:49:22.073Z,1.60
2023-04-30T05:50:23.479Z,1.63
2023-04-30T05:51:24.979Z,1.50
2023-04-30T05:52:26.398Z,1.80
2023-04-30T05:53:28.048Z,1.70
2023-04-30T05:54:30.806Z,1.57
2023-04-30T05:55:32.576Z,1.60
2023-04-30T05:56:33.962Z,1.50
2023-04-30T05:57:35.540Z,1.30
2023-04-30T05:58:37.144Z,1.70
2023-04-30T05:59:39.389Z,1.97
2023-04-30T06:00:41.412Z,2.00
2023-04-30T06:01:43.090Z,1.63
2023-04-30T06:02:44.526Z,1.60
2023-04-30T06:03:45.962Z,1.77
2023-04-30T06:04:48.059Z,1.50
2023-04-30T06:05:49.716Z,1.60
2023-04-30T06:06:51.271Z,1.80
2023-04-30T06:07:52.769Z,1.90
2023-04-30T06:08:54.448Z,1.80
2023-04-30T06:09:56.609Z,1.87
2023-04-30T06:10:58.404Z,1.80
2023-04-30T06:12:00.148Z,1.63
2023-04-30T06:13:02.096Z,1.77
2023-04-30T06:14:04.528Z,1.60
2023-04-30T06:15:07.369Z,1.80
2023-04-30T06:16:09.113Z,1.90
2023-04-30T06:17:10.663Z,1.80
2023-04-30T06:18:14.395Z,1.83
2023-04-30T06:19:16.200Z,1.80
2023-04-30T06:20:17.797Z,1.60
2023-04-30T06:21:20.470Z,1.73
2023-04-30T06:22:22.271Z,2.00
2023-04-30T06:23:23.842Z,1.60
2023-04-30T06:24:27.557Z,2.20
2023-04-30T06:25:29.220Z,1.50
2023-04-30T06:26:30.787Z,1.67
2023-04-30T06:27:32.503Z,1.70
2023-04-30T06:28:34.315Z,1.80
2023-04-30T06:29:35.990Z,1.50
2023-04-30T06:30:37.659Z,1.50
2023-04-30T06:31:39.358Z,1.60
2023-04-30T06:32:41.513Z,1.93
2023-04-30T06:33:43.069Z,1.50
2023-04-30T06:34:44.473Z,1.63
2023-04-30T06:35:46.218Z,1.70
2023-04-30T06:36:47.600Z,1.57
2023-04-30T06:37:49.014Z,1.67
2023-04-30T06:38:50.760Z,1.40
2023-04-30T06:39:52.247Z,1.80
2023-04-30T06:40:53.780Z,1.57
2023-04-30T06:41:55.254Z,1.50
2023-04-30T06:42:56.841Z,1.50
2023-04-30T06:43:58.233Z,1.53
2023-04-30T06:45:01.149Z,1.70
2023-04-30T06:46:02.788Z,1.60
2023-04-30T06:47:04.333Z,1.70
2023-04-30T06:48:06.289Z,1.33
2023-04-30T06:49:07.916Z,1.60
2023-04-30T06:50:09.637Z,1.77
2023-04-30T06:51:11.336Z,1.30
2023-04-30T06:52:12.742Z,1.50
2023-04-30T06:53:15.125Z,1.80
2023-04-30T06:54:16.580Z,1.60
2023-04-30T06:55:18.361Z,1.70
2023-04-30T06:56:22.057Z,2.00
2023-04-30T06:57:24.646Z,1.40
2023-04-30T06:58:26.327Z,1.20
2023-04-30T06:59:28.466Z,1.80
2023-04-30T07:00:30.093Z,1.40
2023-04-30T07:01:31.870Z,1.80
2023-04-30T07:02:33.706Z,1.67
2023-04-30T07:03:36.305Z,1.63
2023-04-30T07:04:38.146Z,1.20
2023-04-30T07:05:41.519Z,1.17
2023-04-30T07:06:43.219Z,1.57
2023-04-30T07:07:44.716Z,1.60
2023-04-30T07:08:46.252Z,1.60
2023-04-30T07:09:49.539Z,1.70
2023-04-30T07:10:51.768Z,1.50
2023-04-30T07:11:53.230Z,1.77
2023-04-30T07:12:54.825Z,1.60
2023-04-30T07:13:56.871Z,1.93
2023-04-30T07:14:58.344Z,1.30
2023-04-30T07:15:59.795Z,1.37
2023-04-30T07:17:01.701Z,1.70
2023-04-30T07:18:04.397Z,1.30
2023-04-30T07:19:05.982Z,1.70
2023-04-30T07:20:09.045Z,1.60
2023-04-30T07:21:10.568Z,1.60
2023-04-30T07:22:12.031Z,1.70
2023-04-30T07:23:14.294Z,1.40
2023-04-30T07:24:15.757Z,1.67
2023-04-30T07:25:17.372Z,1.30
2023-04-30T07:26:18.867Z,1.67
2023-04-30T07:27:20.389Z,1.67
2023-04-30T07:28:22.454Z,1.80
2023-04-30T07:29:24.113Z,1.67
2023-04-30T07:30:26.018Z,1.47
2023-04-30T07:31:27.924Z,1.67
2023-04-30T07:32:29.505Z,1.60
2023-04-30T07:33:31.114Z,1.70
2023-04-30T07:34:33.259Z,1.70
2023-04-30T07:35:34.766Z,1.40
2023-04-30T07:36:36.247Z,1.73
2023-04-30T07:37:39.191Z,2.17
2023-04-30T07:38:43.060Z,1.80
2023-04-30T07:39:44.604Z,1.80
2023-04-30T07:40:46.195Z,1.20
2023-04-30T07:41:48.222Z,1.47
2023-04-30T07:42:49.755Z,1.53
2023-04-30T07:43:51.535Z,1.40
2023-04-30T07:44:53.314Z,1.47
2023-04-30T07:45:55.015Z,1.57
2023-04-30T07:46:57.332Z,1.70
2023-04-30T07:47:59.027Z,1.40
2023-04-30T07:49:00.682Z,1.60
2023-04-30T07:50:02.106Z,1.40
2023-04-30T07:51:04.899Z,1.50
2023-04-30T07:52:10.825Z,1.60
2023-04-30T07:53:12.320Z,1.30
2023-04-30T07:54:14.005Z,1.93
2023-04-30T07:55:15.641Z,1.50
2023-04-30T07:56:17.124Z,2.07
2023-04-30T07:57:18.548Z,1.83
2023-04-30T07:58:20.311Z,1.50
2023-04-30T07:59:24.425Z,1.63
2023-04-30T08:00:26.586Z,1.50
2023-04-30T08:01:28.034Z,1.47
2023-04-30T08:02:29.486Z,1.60
2023-04-30T08:03:31.133Z,1.60
2023-04-30T08:04:33.031Z,1.70
2023-04-30T08:05:34.621Z,1.50
2023-04-30T08:06:36.902Z,1.50
2023-04-30T08:07:39.601Z,1.73
2023-04-30T08:08:41.228Z,1.47
2023-04-30T08:09:42.696Z,1.67
2023-04-30T08:10:44.143Z,2.33
2023-04-30T08:11:45.538Z,2.00
2023-04-30T08:12:47.261Z,1.50
2023-04-30T08:13:49.296Z,1.40
2023-04-30T08:14:50.891Z,1.40
2023-04-30T08:15:52.490Z,1.77
2023-04-30T08:16:54.286Z,1.47
2023-04-30T08:17:56.477Z,1.57
2023-04-30T08:18:58.493Z,1.80
2023-04-30T08:20:04.488Z,1.80
2023-04-30T08:21:06.739Z,1.80
2023-04-30T08:22:08.098Z,1.60
2023-04-30T08:23:09.881Z,1.60
2023-04-30T08:24:11.295Z,1.90
2023-04-30T08:25:12.849Z,1.70
2023-04-30T08:26:14.300Z,1.30
2023-04-30T08:27:16.361Z,1.50
2023-04-30T08:28:18.676Z,1.47
2023-04-30T08:29:20.184Z,1.73
2023-04-30T08:30:21.757Z,1.80
2023-04-30T08:31:23.286Z,1.63
2023-04-30T08:32:24.956Z,1.60
2023-04-30T08:33:26.619Z,1.77
2023-04-30T08:34:28.030Z,2.23
2023-04-30T08:35:29.970Z,1.60
2023-04-30T08:36:31.590Z,1.90
2023-04-30T08:37:33.429Z,1.70
2023-04-30T08:38:34.895Z,1.60
2023-04-30T08:39:36.547Z,1.80
2023-04-30T08:40:50.891Z,1.63
2023-04-30T08:41:57.763Z,1.97
2023-04-30T08:43:23.292Z,2.23
2023-04-30T08:44:35.324Z,1.67
2023-04-30T08:45:37.694Z,1.93
2023-04-30T08:46:39.957Z,2.20
2023-04-30T08:47:42.058Z,1.77
2023-04-30T08:48:44.285Z,1.60
2023-04-30T08:49:46.005Z,1.80
2023-04-30T08:50:47.583Z,1.53
2023-04-30T08:51:50.057Z,1.83
2023-04-30T08:52:51.815Z,1.20
2023-04-30T08:53:55.428Z,1.73
2023-04-30T08:55:01.298Z,1.70
2023-04-30T08:56:04.363Z,1.57
2023-04-30T08:57:06.519Z,1.63
2023-04-30T08:58:10.758Z,1.70
2023-04-30T08:59:13.720Z,1.83
2023-04-30T09:00:16.598Z,1.70
2023-04-30T09:01:18.475Z,1.63
2023-04-30T09:02:20.240Z,1.70
2023-04-30T09:03:23.752Z,1.87
2023-04-30T09:04:25.595Z,1.60
2023-04-30T09:05:27.007Z,1.70
2023-04-30T09:06:28.726Z,1.70
2023-04-30T09:07:33.675Z,1.97
2023-04-30T09:08:47.052Z,1.60
2023-04-30T09:09:53.882Z,1.80
2023-04-30T09:10:55.505Z,1.93
2023-04-30T09:12:19.563Z,1.87
2023-04-30T09:13:21.588Z,2.00
2023-04-30T09:14:27.220Z,1.70
2023-04-30T09:15:29.717Z,1.60
2023-04-30T09:16:51.426Z,2.03
2023-04-30T09:18:06.124Z,2.03
2023-04-30T09:19:07.672Z,2.00
2023-04-30T09:20:10.700Z,1.77
2023-04-30T09:21:12.217Z,1.60
2023-04-30T09:22:24.033Z,1.70
2023-04-30T09:23:25.931Z,2.00
2023-04-30T09:24:45.173Z,1.83
2023-04-30T09:25:47.171Z,1.97
2023-04-30T09:26:51.050Z,2.27
2023-04-30T09:28:08.242Z,2.07
2023-04-30T09:29:10.408Z,1.80
2023-04-30T09:30:31.620Z,1.87
2023-04-30T09:31:37.261Z,1.80
2023-04-30T09:32:55.902Z,1.80
2023-04-30T09:33:57.779Z,1.60
2023-04-30T09:34:59.181Z,1.60
2023-04-30T09:36:09.959Z,1.70
2023-04-30T09:37:11.879Z,1.80
2023-04-30T09:38:31.023Z,1.70
2023-04-30T09:39:32.515Z,1.80
2023-04-30T09:40:40.228Z,1.60
2023-04-30T09:41:42.279Z,1.50
2023-04-30T09:43:01.388Z,2.00
2023-04-30T09:44:03.966Z,1.40
2023-04-30T09:45:05.973Z,1.80
2023-04-30T09:46:07.706Z,1.40
2023-04-30T09:47:16.822Z,1.87
2023-04-30T09:48:23.030Z,1.70
2023-04-30T09:49:26.025Z,1.90
2023-04-30T09:50:27.445Z,2.00
2023-04-30T09:51:29.282Z,2.10
2023-04-30T09:52:31.807Z,1.57
2023-04-30T09:53:37.878Z,1.50
2023-04-30T09:54:40.156Z,1.80
2023-04-30T09:55:47.119Z,1.60
2023-04-30T09:56:50.003Z,1.90
2023-04-30T09:57:51.608Z,1.80
2023-04-30T09:58:55.411Z,2.03
2023-04-30T09:59:58.610Z,1.87
2023-04-30T10:01:02.661Z,2.13
2023-04-30T10:02:07.125Z,1.80
2023-04-30T10:03:11.195Z,2.10
2023-04-30T10:04:13.984Z,1.97
2023-04-30T10:05:16.253Z,1.90
2023-04-30T10:06:20.915Z,1.87
2023-04-30T10:07:29.725Z,2.33
2023-04-30T10:08:41.865Z,1.90
2023-04-30T10:09:59.444Z,1.90
2023-04-30T10:11:16.389Z,2.13
2023-04-30T10:12:24.587Z,1.80
2023-04-30T10:13:28.123Z,1.77
2023-04-30T10:14:34.226Z,2.27
2023-04-30T10:15:43.246Z,1.90
2023-04-30T10:17:04.353Z,1.90
2023-04-30T10:18:11.235Z,2.17
2023-04-30T10:19:30.859Z,1.73
2023-04-30T10:20:36.971Z,1.90
2023-04-30T10:21:41.612Z,1.93
2023-04-30T10:22:44.398Z,2.07
2023-04-30T10:23:46.815Z,1.97
2023-04-30T10:24:49.225Z,2.23
2023-04-30T10:25:51.484Z,2.13
2023-04-30T10:26:53.448Z,1.90
2023-04-30T10:27:56.432Z,1.70
2023-04-30T10:29:01.160Z,1.67
2023-04-30T10:30:02.936Z,1.73
2023-04-30T10:31:13.156Z,1.67
2023-04-30T10:32:16.220Z,1.73
2023-04-30T10:33:33.804Z,2.27
2023-04-30T10:34:46.234Z,1.90
2023-04-30T10:36:12.448Z,1.87
2023-04-30T10:37:31.404Z,2.00
2023-04-30T10:38:33.915Z,2.10
2023-04-30T10:39:37.899Z,2.00
2023-04-30T10:40:39.352Z,2.23
2023-04-30T10:41:40.752Z,1.70
2023-04-30T10:42:54.943Z,2.07
2023-04-30T10:44:02.427Z,2.10
2023-04-30T10:45:04.471Z,2.13
2023-04-30T10:46:08.110Z,2.00
2023-04-30T10:47:10.252Z,2.20
2023-04-30T10:48:14.524Z,2.00
2023-04-30T10:49:24.537Z,2.20
2023-04-30T10:50:26.229Z,2.23
2023-04-30T10:51:45.835Z,2.17
2023-04-30T10:52:47.599Z,2.00
2023-04-30T10:53:54.133Z,2.10
2023-04-30T10:54:56.394Z,1.70
2023-04-30T10:56:09.178Z,2.10
2023-04-30T10:57:14.645Z,2.30
2023-04-30T10:58:27.380Z,1.97
2023-04-30T10:59:28.808Z,2.20
2023-04-30T11:00:30.958Z,2.17
2023-04-30T11:01:52.827Z,1.88
2023-04-30T11:03:03.985Z,2.28
2023-04-30T11:04:09.521Z,1.87
2023-04-30T11:05:12.791Z,2.22
2023-04-30T11:06:15.971Z,2.05
2023-04-30T11:07:17.652Z,2.00
2023-04-30T11:08:21.121Z,1.77
2023-04-30T11:09:43.447Z,2.00
2023-04-30T11:11:03.698Z,2.03
2023-04-30T11:12:14.365Z,1.90
2023-04-30T11:13:16.279Z,2.03
2023-04-30T11:14:22.874Z,1.85
2023-04-30T11:15:35.245Z,2.28
2023-04-30T11:16:36.960Z,2.08
2023-04-30T11:17:38.982Z,1.75
2023-04-30T11:18:47.374Z,2.20
2023-04-30T11:19:53.300Z,2.10
2023-04-30T11:20:57.513Z,2.47
2023-04-30T11:22:04.905Z,2.10
2023-04-30T11:23:24.984Z,1.97
2023-04-30T11:24:53.405Z,1.90
2023-04-30T11:25:57.746Z,2.20
2023-04-30T11:27:06.111Z,2.43
2023-04-30T11:28:08.236Z,1.97
2023-04-30T11:29:10.418Z,1.90
2023-04-30T11:30:18.900Z,1.98
2023-04-30T11:31:33.995Z,2.30
2023-04-30T11:32:38.221Z,1.92
2023-04-30T11:33:41.353Z,1.98
2023-04-30T11:34:46.800Z,2.00
2023-04-30T11:35:53.048Z,2.20
2023-04-30T11:37:00.138Z,1.93
2023-04-30T11:38:04.126Z,1.87
2023-04-30T11:39:08.032Z,2.00
2023-04-30T11:40:11.637Z,2.40
2023-04-30T11:41:13.995Z,2.07
2023-04-30T11:42:19.625Z,2.10
2023-04-30T11:43:28.227Z,2.30
2023-04-30T11:44:30.136Z,2.27
2023-04-30T11:45:32.014Z,2.20
2023-04-30T11:46:34.180Z,1.80
2023-04-30T11:47:50.455Z,2.10
2023-04-30T11:48:53.302Z,2.27
2023-04-30T11:49:57.501Z,1.90
2023-04-30T11:50:59.128Z,1.77
2023-04-30T11:52:00.920Z,2.33
2023-04-30T11:53:03.924Z,2.20
2023-04-30T11:54:09.943Z,1.90
2023-04-30T11:55:17.085Z,2.10
2023-04-30T11:56:24.578Z,2.13
2023-04-30T11:57:26.198Z,2.13
2023-04-30T11:58:28.951Z,2.22
2023-04-30T11:59:32.979Z,2.38
2023-04-30T12:00:34.636Z,2.13
2023-04-30T12:01:37.034Z,2.23
2023-04-30T12:02:40.062Z,2.08
2023-04-30T12:03:45.414Z,2.50
2023-04-30T12:04:48.582Z,2.22
2023-04-30T12:05:50.707Z,2.10
2023-04-30T12:06:52.199Z,1.90
2023-04-30T12:08:00.657Z,2.10
2023-04-30T12:09:06.511Z,1.83
2023-04-30T12:10:10.484Z,1.85
2023-04-30T12:11:29.928Z,1.90
2023-04-30T12:12:32.417Z,2.30
2023-04-30T12:13:35.369Z,2.15
2023-04-30T12:14:37.824Z,2.28
2023-04-30T12:15:39.787Z,2.00
2023-04-30T12:16:45.884Z,1.90
2023-04-30T12:17:48.416Z,2.30
2023-04-30T12:18:52.399Z,1.92
2023-04-30T12:19:55.001Z,2.30
2023-04-30T12:20:57.119Z,2.15
2023-04-30T12:22:00.245Z,2.42
2023-04-30T12:23:02.343Z,2.10
2023-04-30T12:24:04.717Z,2.20
2023-04-30T12:25:14.303Z,2.10
2023-04-30T12:26:15.705Z,2.05
2023-04-30T12:27:17.912Z,2.33
2023-04-30T12:28:19.371Z,2.05
2023-04-30T12:29:25.599Z,2.30
2023-04-30T12:30:28.167Z,1.98
2023-04-30T12:31:32.301Z,2.10
2023-04-30T12:32:38.282Z,2.50
2023-04-30T12:33:40.535Z,2.00
2023-04-30T12:34:43.193Z,2.40
2023-04-30T12:35:44.903Z,1.95
2023-04-30T12:36:46.364Z,1.90
2023-04-30T12:37:51.940Z,2.15
2023-04-30T12:39:03.459Z,1.70
2023-04-30T12:40:09.068Z,2.15
2023-04-30T12:41:15.648Z,2.22
2023-04-30T12:42:20.088Z,2.10
2023-04-30T12:43:22.301Z,2.10
2023-04-30T12:44:27.851Z,2.25
2023-04-30T12:45:48.784Z,2.17
2023-04-30T12:46:56.282Z,1.98
2023-04-30T12:47:58.697Z,2.15
2023-04-30T12:49:00.680Z,2.30
2023-04-30T12:50:03.105Z,2.13
2023-04-30T12:51:05.207Z,2.08
2023-04-30T12:52:11.823Z,2.25
2023-04-30T12:53:14.034Z,2.17
2023-04-30T12:54:15.879Z,1.90
2023-04-30T12:55:21.136Z,2.03
2023-04-30T12:56:23.929Z,1.75
2023-04-30T12:57:25.478Z,2.10
2023-04-30T12:58:31.269Z,1.83
2023-04-30T12:59:37.292Z,2.58
2023-04-30T13:00:51.600Z,2.10
2023-04-30T13:01:55.642Z,2.35
2023-04-30T13:02:57.243Z,2.47
2023-04-30T13:03:59.393Z,2.00
2023-04-30T13:05:01.152Z,2.60
2023-04-30T13:06:04.609Z,2.00
2023-04-30T13:07:06.315Z,2.28
2023-04-30T13:08:08.294Z,2.10
2023-04-30T13:09:10.511Z,2.17
2023-04-30T13:10:13.449Z,2.20
2023-04-30T13:11:15.046Z,2.13
2023-04-30T13:12:16.834Z,1.90
2023-04-30T13:13:20.346Z,1.90
2023-04-30T13:14:21.844Z,2.10
2023-04-30T13:15:24.121Z,1.60
2023-04-30T13:16:26.098Z,1.98
2023-04-30T13:17:27.933Z,2.15
2023-04-30T13:18:29.346Z,1.77
2023-04-30T13:19:31.304Z,2.35
2023-04-30T13:20:32.765Z,1.80
2023-04-30T13:21:34.820Z,1.90
2023-04-30T13:22:37.774Z,1.90
2023-04-30T13:23:51.183Z,2.70
2023-04-30T13:24:54.908Z,2.00
2023-04-30T13:25:56.433Z,2.50
2023-04-30T13:26:59.534Z,2.28
2023-04-30T13:28:01.333Z,2.10
2023-04-30T13:29:04.122Z,2.40
2023-04-30T13:30:06.704Z,2.28
2023-04-30T13:31:08.178Z,2.00
2023-04-30T13:32:10.071Z,2.05
2023-04-30T13:33:12.599Z,2.13
2023-04-30T13:34:15.220Z,2.03
2023-04-30T13:35:16.723Z,1.97
2023-04-30T13:36:18.435Z,1.63
2023-04-30T13:37:19.969Z,2.07
2023-04-30T13:38:22.416Z,2.00
2023-04-30T13:39:24.465Z,2.27
2023-04-30T13:40:26.249Z,1.90
2023-04-30T13:41:28.104Z,1.80
2023-04-30T13:42:30.070Z,1.90
2023-04-30T13:43:31.507Z,2.90
2023-04-30T13:44:33.817Z,2.40
2023-04-30T13:45:35.750Z,2.27
2023-04-30T13:46:37.359Z,2.00
2023-04-30T13:47:39.566Z,2.07
2023-04-30T13:48:41.346Z,2.13
2023-04-30T13:49:43.154Z,2.00
2023-04-30T13:50:45.008Z,1.80
2023-04-30T13:51:46.452Z,1.90
2023-04-30T13:52:48.020Z,2.17
2023-04-30T13:53:50.026Z,2.50
2023-04-30T13:54:52.332Z,1.93
2023-04-30T13:55:54.599Z,2.20
2023-04-30T13:56:56.048Z,3.40
2023-04-30T13:57:57.510Z,2.30
2023-04-30T13:58:59.033Z,2.13
2023-04-30T14:00:00.974Z,2.13
2023-04-30T14:01:02.839Z,2.47
2023-04-30T14:02:04.386Z,2.10
2023-04-30T14:03:07.900Z,1.90
2023-04-30T14:04:09.752Z,2.10
2023-04-30T14:05:11.912Z,1.87
2023-04-30T14:06:13.454Z,2.10
2023-04-30T14:07:15.501Z,2.03
2023-04-30T14:08:16.888Z,2.20
2023-04-30T14:09:18.603Z,2.20
2023-04-30T14:10:20.304Z,2.47